Time;durP1;ratioP1;P1;durP2;ratioP2;P2;SDS_P1;SDS_P2;PMS_P1;PMS_P2;Temp;Humidity;BMP_temperature;BMP_pressure;BME280_temperature;BME280_humidity;BME280_pressure;Samples;Min_cycle;Max_cycle;Signal;HPM_P1;HPM_P2
2023/04/18 00:00:23;;;;;;;16.83;11.65;;;;;;;;;;5036147;28;20071;-71
2023/04/18 00:02:52;;;;;;;17.00;10.57;;;;;;;;;;5036239;28;20037;-71
2023/04/18 00:05:19;;;;;;;20.02;10.60;;;;;;;;;;5036070;28;20500;-72
2023/04/18 00:07:47;;;;;;;23.00;12.35;;;;;;;;;;5036282;28;20408;-72
2023/04/18 00:10:14;;;;;;;17.05;11.25;;;;;;;;;;5036738;28;20051;-72
2023/04/18 00:12:40;;;;;;;18.58;11.55;;;8.20;99.90;;;;;;5035800;28;20079;-71
2023/04/18 00:15:10;;;;;;;15.63;10.75;;;8.10;99.90;;;;;;5035912;28;20067;-72
2023/04/18 00:17:38;;;;;;;16.42;11.13;;;;;;;;;;5035641;28;20037;-72
2023/04/18 00:20:10;;;;;;;16.70;11.77;;;7.90;99.90;;;;;;5019188;28;20134;-72
2023/04/18 00:22:41;;;;;;;18.67;12.27;;;8.00;99.90;;;;;;5035604;28;20077;-72
2023/04/18 00:25:07;;;;;;;28.90;12.00;;;8.10;99.90;;;;;;5035609;28;20041;-73
2023/04/18 00:27:33;;;;;;;21.10;12.07;;;8.20;99.90;;;;;;5035510;28;20559;-71
2023/04/18 00:29:58;;;;;;;20.20;12.40;;;8.40;99.90;;;;;;5018949;28;20128;-72
2023/04/18 00:32:24;;;;;;;17.60;11.45;;;8.40;99.90;;;;;;5035585;28;20041;-72
2023/04/18 00:34:49;;;;;;;15.70;10.30;;;8.30;99.90;;;;;;5053279;28;20036;-72
2023/04/18 00:37:15;;;;;;;16.98;11.75;;;8.30;99.90;;;;;;5019018;28;20064;-72
2023/04/18 00:39:41;;;;;;;17.10;12.43;;;8.40;99.90;;;;;;5035213;28;20137;-71
2023/04/18 00:42:06;;;;;;;17.48;11.80;;;8.40;99.90;;;;;;5053318;28;20033;-72
2023/04/18 00:44:32;;;;;;;16.30;10.93;;;8.30;99.90;;;;;;5052391;28;20107;-71
2023/04/18 00:46:57;;;;;;;19.08;11.55;;;8.20;99.90;;;;;;5035164;28;20489;-72
2023/04/18 00:49:24;;;;;;;16.08;10.73;;;8.50;99.90;;;;;;5018720;28;20409;-72
2023/04/18 00:51:50;;;;;;;17.60;11.73;;;8.40;99.90;;;;;;5035072;28;20037;-72
2023/04/18 00:54:17;;;;;;;16.90;12.02;;;8.20;99.90;;;;;;5034935;28;20159;-73
2023/04/18 00:56:44;;;;;;;21.33;12.48;;;8.20;99.90;;;;;;5034939;28;20045;-71
2023/04/18 00:59:10;;;;;;;23.98;12.43;;;8.20;99.90;;;;;;5034953;28;20083;-71
2023/04/18 01:01:36;;;;;;;17.92;12.23;;;8.10;99.90;;;;;;5035102;28;20520;-72
2023/04/18 01:04:02;;;;;;;26.20;14.45;;;8.10;99.90;;;;;;5035085;28;20086;-71
2023/04/18 01:06:28;;;;;;;22.75;12.25;;;8.00;99.90;;;;;;5034918;28;20037;-72
2023/04/18 01:08:55;;;;;;;20.10;13.00;;;8.10;99.90;;;;;;5034555;28;20055;-72
2023/04/18 01:11:21;;;;;;;19.88;12.35;;;8.00;99.90;;;;;;5034904;28;20041;-72
2023/04/18 01:14:03;;;;;;;22.33;12.43;;;8.00;99.90;;;;;;5018267;28;20401;-71
2023/04/18 01:16:31;;;;;;;15.43;11.02;;;8.00;99.90;;;;;;5034735;28;20094;-72
2023/04/18 01:18:57;;;;;;;16.92;11.88;;;8.10;99.90;;;;;;5034455;28;20052;-71
2023/04/18 01:21:23;;;;;;;18.63;11.95;;;8.10;99.90;;;;;;5018182;28;20037;-72
2023/04/18 01:23:50;;;;;;;28.42;12.98;;;8.00;99.90;;;;;;5034219;28;20037;-72
2023/04/18 01:26:16;;;;;;;19.63;11.98;;;8.10;99.90;;;;;;5034530;28;20055;-72
2023/04/18 01:28:41;;;;;;;18.25;11.77;;;7.90;99.90;;;;;;5034330;28;20037;-72
2023/04/18 01:31:07;;;;;;;20.95;12.15;;;8.00;99.90;;;;;;5034778;28;20044;-72
2023/04/18 01:33:32;;;;;;;17.33;12.10;;;7.80;99.90;;;;;;5034173;28;20041;-72
2023/04/18 01:35:58;;;;;;;16.00;10.85;;;;;;;;;;5034446;28;20041;-72
2023/04/18 01:38:24;;;;;;;14.45;10.70;;;7.80;99.90;;;;;;5034340;28;20049;-72
2023/04/18 01:40:49;;;;;;;17.90;10.43;;;7.80;99.90;;;;;;5017951;28;20769;-72
2023/04/18 01:43:15;;;;;;;17.63;9.82;;;;;;;;;;5034081;28;20518;-71
2023/04/18 01:45:41;;;;;;;15.35;9.70;;;;;;;;;;5034498;28;20037;-71
2023/04/18 01:48:07;;;;;;;15.75;9.77;;;7.90;99.90;;;;;;5033839;28;20045;-72
2023/04/18 01:50:33;;;;;;;14.77;10.25;;;;;;;;;;5034452;28;20087;-72
2023/04/18 01:52:59;;;;;;;12.82;9.18;;;;;;;;;;5033815;28;20045;-72
2023/04/18 01:55:24;;;;;;;15.00;9.82;;;7.70;99.90;;;;;;5034809;28;20563;-71
2023/04/18 01:57:50;;;;;;;16.00;10.05;;;7.90;99.90;;;;;;5034556;28;20130;-71
2023/04/18 02:00:16;;;;;;;23.77;13.80;;;7.90;99.90;;;;;;5033889;28;20041;-72
2023/04/18 02:02:41;;;;;;;15.55;10.02;;;7.80;99.90;;;;;;5033808;28;20116;-72
2023/04/18 02:05:08;;;;;;;12.98;10.40;;;;;;;;;;5017284;28;20041;-72
2023/04/18 02:07:34;;;;;;;15.45;9.57;;;;;;;;;;5033670;28;20086;-72
2023/04/18 02:10:00;;;;;;;16.67;9.88;;;;;;;;;;5033773;28;20041;-71
2023/04/18 02:12:25;;;;;;;15.75;9.65;;;7.70;99.90;;;;;;5033801;28;20048;-72
2023/04/18 02:14:52;;;;;;;16.30;9.45;;;7.70;99.90;;;;;;5033775;28;20037;-72
2023/04/18 02:17:22;;;;;;;15.07;9.13;;;7.70;99.90;;;;;;5033729;28;20071;-72
2023/04/18 02:19:49;;;;;;;11.80;8.95;;;7.70;99.90;;;;;;5033610;28;20037;-72
2023/04/18 02:22:16;;;;;;;16.58;10.52;;;;;;;;;;5051518;28;20040;-71
2023/04/18 02:24:41;;;;;;;13.25;8.52;;;7.60;99.90;;;;;;5033620;28;20120;-72
2023/04/18 02:27:07;;;;;;;17.85;10.32;;;7.70;99.90;;;;;;5033459;28;20483;-72
2023/04/18 02:29:33;;;;;;;18.95;12.75;;;;;;;;;;5033597;28;20092;-71
2023/04/18 02:31:59;;;;;;;15.88;10.45;;;;;;;;;;5033486;28;20045;-71
2023/04/18 02:34:25;;;;;;;13.50;8.35;;;7.50;99.90;;;;;;5033681;28;20048;-71
2023/04/18 02:36:50;;;;;;;11.95;8.18;;;7.70;99.90;;;;;;5033354;28;20193;-71
2023/04/18 02:39:16;;;;;;;13.10;8.48;;;7.60;99.90;;;;;;5033615;28;20048;-72
2023/04/18 02:41:42;;;;;;;11.35;7.93;;;;;;;;;;5033561;28;20128;-71
2023/04/18 02:44:08;;;;;;;11.95;8.40;;;7.80;99.90;;;;;;5033357;28;20124;-71
2023/04/18 02:46:34;;;;;;;12.48;8.35;;;;;;;;;;5033408;28;20041;-72
2023/04/18 02:48:59;;;;;;;16.17;8.05;;;7.70;99.90;;;;;;5033247;28;20056;-71
2023/04/18 02:51:25;;;;;;;15.57;8.40;;;7.60;99.90;;;;;;5033284;28;20033;-72
2023/04/18 02:53:53;;;;;;;10.43;7.35;;;7.50;99.90;;;;;;5016794;28;20037;-71
2023/04/18 02:56:20;;;;;;;9.65;7.40;;;;;;;;;;5033314;28;20519;-71
2023/04/18 02:58:46;;;;;;;15.70;10.13;;;;;;;;;;5033472;28;20056;-71
2023/04/18 03:01:12;;;;;;;18.85;10.18;;;;;;;;;;5033322;28;20037;-71
2023/04/18 03:03:38;;;;;;;10.40;7.63;;;;;;;;;;5033232;28;20037;-72
2023/04/18 03:06:04;;;;;;;14.20;8.93;;;7.70;99.90;;;;;;5017841;28;20041;-71
2023/04/18 03:08:30;;;;;;;12.10;7.78;;;;;;;;;;5054913;28;20047;-72
2023/04/18 03:10:56;;;;;;;11.13;7.55;;;;;;;;;;5037196;28;20508;-71
2023/04/18 03:13:22;;;;;;;10.90;7.10;;;7.70;99.90;;;;;;5037056;28;20033;-71
2023/04/18 03:15:47;;;;;;;11.38;7.55;;;7.70;99.90;;;;;;5055451;28;20036;-72
2023/04/18 03:18:13;;;;;;;11.00;6.78;;;;;;;;;;5020703;28;20131;-71
2023/04/18 03:20:40;;;;;;;11.52;7.35;;;;;;;;;;5036903;28;20033;-71
2023/04/18 03:23:06;;;;;;;9.70;6.97;;;;;;;;;;5037331;28;20053;-71
2023/04/18 03:25:33;;;;;;;12.52;8.02;;;;;;;;;;5036863;28;20041;-72
2023/04/18 03:27:58;;;;;;;12.57;8.70;;;7.70;99.90;;;;;;5036530;28;20045;-72
2023/04/18 03:30:25;;;;;;;11.52;7.90;;;7.80;99.90;;;;;;5036889;28;20048;-72
2023/04/18 03:32:51;;;;;;;11.75;7.97;;;7.70;99.90;;;;;;5036777;28;20389;-71
2023/04/18 03:35:18;;;;;;;15.68;8.32;;;;;;;;;;5036670;28;20045;-72
2023/04/18 03:37:43;;;;;;;12.98;7.82;;;7.80;99.90;;;;;;5020328;28;20045;-72
2023/04/18 03:40:10;;;;;;;11.73;7.20;;;7.70;99.90;;;;;;5055760;28;20063;-72
2023/04/18 03:42:35;;;;;;;11.18;8.07;;;7.60;99.90;;;;;;5036645;28;20095;-72
2023/04/18 03:45:01;;;;;;;11.93;8.25;;;;;;;;;;5036420;28;20408;-72
2023/04/18 03:47:27;;;;;;;9.63;6.78;;;;;;;;;;5019728;28;20048;-71
2023/04/18 03:49:53;;;;;;;11.48;7.53;;;7.70;99.90;;;;;;5036553;28;20504;-72
2023/04/18 03:52:19;;;;;;;12.32;7.88;;;;;;;;;;5036355;28;20136;-72
2023/04/18 03:54:45;;;;;;;11.38;7.40;;;;;;;;;;5036247;28;20437;-72
2023/04/18 03:57:11;;;;;;;12.65;7.28;;;;;;;;;;5054553;28;20045;-72
2023/04/18 03:59:37;;;;;;;14.50;8.90;;;;;;;;;;5036663;28;20575;-72
2023/04/18 04:02:02;;;;;;;11.15;7.40;;;7.80;99.90;;;;;;5020479;28;20045;-72
2023/04/18 04:04:28;;;;;;;11.10;7.40;;;7.80;99.90;;;;;;5036738;28;20047;-72
2023/04/18 04:06:54;;;;;;;11.90;7.43;;;;;;;;;;5035895;28;20077;-71
2023/04/18 04:09:20;;;;;;;12.07;7.93;;;7.90;99.90;;;;;;5037152;28;20040;-72
2023/04/18 04:11:46;;;;;;;11.00;7.68;;;;;;;;;;5054134;28;20044;-72
2023/04/18 04:14:11;;;;;;;9.02;6.65;;;7.70;99.90;;;;;;5035992;28;20087;-72
2023/04/18 04:16:37;;;;;;;13.00;7.65;;;7.80;99.90;;;;;;5054072;28;20032;-72
2023/04/18 04:19:03;;;;;;;9.88;6.55;;;;;;;;;;5034375;28;20052;-71
2023/04/18 04:21:30;;;;;;;11.60;7.80;;;7.80;99.90;;;;;;5035770;28;20043;-72
2023/04/18 04:23:56;;;;;;;9.65;7.35;;;7.80;99.90;;;;;;5035580;28;20095;-72
2023/04/18 04:26:22;;;;;;;10.43;7.20;;;7.90;99.90;;;;;;5019328;28;20037;-72
2023/04/18 04:28:48;;;;;;;14.65;8.65;;;7.90;99.90;;;;;;5035376;28;20120;-72
2023/04/18 04:31:15;;;;;;;11.95;7.70;;;;;;;;;;5035670;28;20041;-72
2023/04/18 04:33:42;;;;;;;9.45;6.68;;;8.10;99.90;;;;;;5035473;28;20071;-72
2023/04/18 04:36:08;;;;;;;13.00;7.80;;;8.00;99.90;;;;;;5035643;28;20045;-72
2023/04/18 04:38:37;;;;;;;11.90;6.65;;;8.10;99.90;;;;;;5035021;28;20044;-72
2023/04/18 04:41:05;;;;;;;11.35;7.32;;;;;;;;;;5035409;28;20040;-72
2023/04/18 04:43:31;;;;;;;10.98;6.65;;;;;;;;;;5035523;28;20082;-72
2023/04/18 04:45:57;;;;;;;12.20;6.68;;;8.00;99.90;;;;;;5035411;28;20052;-72
2023/04/18 04:48:23;;;;;;;10.98;6.70;;;8.20;99.90;;;;;;5035306;28;20496;-72
2023/04/18 04:50:57;;;;;;;12.75;7.40;;;8.20;99.90;;;;;;5052807;28;20033;-72
2023/04/18 04:53:24;;;;;;;10.57;6.90;;;8.10;99.90;;;;;;5055218;28;20056;-71
2023/04/18 04:55:50;;;;;;;12.38;7.43;;;8.20;99.90;;;;;;5038677;28;20514;-72
2023/04/18 04:58:17;;;;;;;14.27;9.05;;;;;;;;;;5054548;28;20036;-72
2023/04/18 05:00:43;;;;;;;11.80;7.45;;;;;;;;;;5054993;28;20090;-72
2023/04/18 05:03:09;;;;;;;10.95;7.28;;;7.90;99.90;;;;;;5054782;28;20500;-72
2023/04/18 05:05:35;;;;;;;10.98;7.38;;;8.20;99.90;;;;;;5054952;28;20066;-72
2023/04/18 05:08:02;;;;;;;9.48;6.72;;;;;;;;;;5054953;28;20487;-72
2023/04/18 05:10:27;;;;;;;10.20;6.78;;;8.20;99.90;;;;;;5055309;28;20040;-72
2023/04/18 05:12:53;;;;;;;13.15;7.10;;;;;;;;;;5054548;28;20097;-72
2023/04/18 05:15:19;;;;;;;10.32;7.22;;;8.40;99.90;;;;;;5038391;28;20131;-72
2023/04/18 05:17:45;;;;;;;10.38;7.32;;;;;;;;;;5054475;28;20083;-72
2023/04/18 05:20:11;;;;;;;11.43;7.43;;;;;;;;;;5045011;28;20466;-71
2023/04/18 05:22:37;;;;;;;12.95;8.32;;;;;;;;;;5018413;28;20094;-72
2023/04/18 05:25:03;;;;;;;19.75;11.27;;;8.30;99.90;;;;;;5034758;28;20045;-72
2023/04/18 05:27:29;;;;;;;16.33;9.68;;;8.40;99.90;;;;;;5034365;28;20500;-72
2023/04/18 05:29:54;;;;;;;13.25;7.90;;;8.40;99.90;;;;;;5034230;28;20045;-72
2023/04/18 05:32:21;;;;;;;11.40;8.32;;;;;;;;;;5034369;28;20119;-72
2023/04/18 05:34:47;;;;;;;12.40;8.73;;;8.40;99.90;;;;;;5034415;28;20040;-72
2023/04/18 05:37:13;;;;;;;11.68;7.85;;;8.40;99.90;;;;;;5034067;28;20049;-72
2023/04/18 05:39:39;;;;;;;12.63;8.10;;;;;;;;;;5033897;28;20571;-72
2023/04/18 05:42:05;;;;;;;12.23;8.90;;;;;;;;;;5034243;28;20032;-72
2023/04/18 05:44:31;;;;;;;16.05;8.60;;;;;;;;;;5034095;28;20079;-71
2023/04/18 05:46:57;;;;;;;11.82;8.30;;;;;;;;;;5017787;28;20076;-71
2023/04/18 05:49:23;;;;;;;14.23;9.10;;;;;;;;;;5034126;28;20051;-72
2023/04/18 05:51:51;;;;;;;11.07;8.13;;;;;;;;;;5034380;28;20041;-72
2023/04/18 05:54:17;;;;;;;15.13;10.00;;;;;;;;;;5017429;28;20052;-72
2023/04/18 05:56:43;;;;;;;18.58;11.00;;;;;;;;;;5033735;28;20049;-71
2023/04/18 05:59:09;;;;;;;16.17;9.63;;;;;;;;;;5017125;28;20047;-73
2023/04/18 06:01:35;;;;;;;14.52;9.18;;;8.60;99.90;;;;;;5017431;28;20033;-72
2023/04/18 06:04:01;;;;;;;13.60;9.10;;;;;;;;;;5030710;28;20041;-73
2023/04/18 06:06:26;;;;;;;15.20;10.65;;;8.60;99.90;;;;;;5030827;28;20060;-72
2023/04/18 06:08:53;;;;;;;17.95;10.65;;;8.70;99.90;;;;;;5049115;28;20072;-72
2023/04/18 06:11:20;;;;;;;14.25;9.38;;;;;;;;;;5016195;28;20044;-72
2023/04/18 06:13:46;;;;;;;14.20;9.93;;;9.00;99.90;;;;;;5033011;28;20051;-72
2023/04/18 06:16:12;;;;;;;15.88;9.68;;;8.90;99.90;;;;;;5032004;28;20036;-73
2023/04/18 06:18:38;;;;;;;18.65;9.35;;;;;;;;;;5032561;28;20102;-73
2023/04/18 06:21:04;;;;;;;12.85;9.30;;;;;;;;;;5032749;28;20045;-72
2023/04/18 06:23:30;;;;;;;14.93;9.85;;;;;;;;;;5032729;28;20041;-72
2023/04/18 06:25:56;;;;;;;13.65;10.00;;;9.00;99.90;;;;;;5033085;28;20500;-72
2023/04/18 06:28:22;;;;;;;16.95;10.73;;;8.80;99.90;;;;;;5031867;28;20036;-72
2023/04/18 06:30:48;;;;;;;13.70;8.95;;;;;;;;;;5032841;28;20029;-72
2023/04/18 06:33:14;;;;;;;14.52;9.48;;;8.90;99.90;;;;;;5032840;28;20106;-72
2023/04/18 06:35:40;;;;;;;17.20;9.45;;;;;;;;;;5033250;28;20041;-72
2023/04/18 06:38:06;;;;;;;14.80;9.52;;;8.80;99.90;;;;;;5032874;28;20045;-72
2023/04/18 06:40:32;;;;;;;13.00;9.10;;;9.00;99.90;;;;;;5032218;28;20037;-73
2023/04/18 06:42:58;;;;;;;16.42;9.82;;;;;;;;;;5020710;28;20052;-73
2023/04/18 06:45:24;;;;;;;12.48;8.48;;;;;;;;;;5054460;28;20048;-73
2023/04/18 06:47:51;;;;;;;14.80;9.05;;;;;;;;;;5016867;28;20029;-72
2023/04/18 06:50:16;;;;;;;13.32;9.00;;;9.20;99.90;;;;;;5017510;28;20502;-72
2023/04/18 06:52:45;;;;;;;12.13;8.32;;;;;;;;;;5033577;28;20041;-72
2023/04/18 06:55:12;;;;;;;11.70;8.93;;;;;;;;;;5051376;28;20049;-70
2023/04/18 06:57:40;;;;;;;17.42;9.88;;;9.50;99.90;;;;;;5020631;28;20041;-72
2023/04/18 07:00:06;;;;;;;14.05;9.05;;;;;;;;;;5033574;28;20496;-72
2023/04/18 07:02:34;;;;;;;18.98;9.25;;;9.70;99.90;;;;;;5014132;28;20037;-72
2023/04/18 07:05:00;;;;;;;17.42;8.50;;;;;;;;;;5031223;28;20033;-72
2023/04/18 07:07:26;;;;;;;14.27;8.95;;;;;;;;;;5032126;28;20098;-72
2023/04/18 07:09:52;;;;;;;11.20;7.65;;;;;;;;;;5027518;28;20037;-72
2023/04/18 07:12:18;;;;;;;10.38;7.47;;;;;;;;;;5032890;28;20526;-72
2023/04/18 07:14:44;;;;;;;14.00;8.75;;;;;;;;;;5020386;28;20041;-72
2023/04/18 07:17:10;;;;;;;10.63;8.23;;;;;;;;;;5025207;28;20101;-72
2023/04/18 07:19:36;;;;;;;12.27;9.15;;;;;;;;;;5019990;28;20041;-73
2023/04/18 07:22:02;;;;;;;13.48;9.25;;;10.20;99.90;;;;;;5021380;28;20211;-72
2023/04/18 07:24:28;;;;;;;15.85;8.35;;;10.10;99.90;;;;;;5020990;28;20038;-72
2023/04/18 07:26:54;;;;;;;13.32;7.60;;;;;;;;;;5022049;28;20037;-72
2023/04/18 07:29:20;;;;;;;11.98;7.85;;;;;;;;;;5019697;28;20052;-73
2023/04/18 07:31:46;;;;;;;11.85;7.68;;;;;;;;;;5026256;28;20044;-73
2023/04/18 07:34:15;;;;;;;10.80;7.45;;;;;;;;;;5031070;28;20714;-72
2023/04/18 07:36:41;;;;;;;12.20;7.10;;;;;;;;;;5033003;28;20045;-71
2023/04/18 07:39:07;;;;;;;11.85;6.57;;;10.50;99.90;;;;;;5036484;28;20041;-72
2023/04/18 07:41:33;;;;;;;17.60;7.43;;;10.50;99.90;;;;;;5035871;28;20132;-72
2023/04/18 07:44:00;;;;;;;12.35;7.20;;;;;;;;;;5049139;28;20029;-72
2023/04/18 07:46:26;;;;;;;11.90;7.65;;;;;;;;;;5039384;28;20075;-72
2023/04/18 07:48:52;;;;;;;12.43;7.35;;;;;;;;;;5042241;28;20131;-72
2023/04/18 07:51:18;;;;;;;14.00;8.80;;;10.80;99.90;;;;;;5054052;28;20535;-72
2023/04/18 07:53:43;;;;;;;17.23;8.05;;;10.60;99.90;;;;;;5043130;28;20045;-72
2023/04/18 07:56:13;;;;;;;10.50;7.45;;;10.80;99.90;;;;;;5036153;28;20045;-72
2023/04/18 07:58:39;;;;;;;13.63;7.82;;;10.70;99.90;;;;;;5048725;28;20460;-73
2023/04/18 08:01:06;;;;;;;12.82;8.98;;;;;;;;;;5037605;28;20029;-73
2023/04/18 08:03:33;;;;;;;12.07;7.72;;;10.90;99.90;;;;;;5036802;28;20076;-72
2023/04/18 08:06:01;;;;;;;11.48;7.68;;;;;;;;;;5040661;28;20520;-72
2023/04/18 08:08:27;;;;;;;11.90;8.15;;;11.20;99.90;;;;;;5043620;28;20711;-73
2023/04/18 08:10:53;;;;;;;12.27;7.45;;;;;;;;;;5050222;28;20041;-72
2023/04/18 08:13:19;;;;;;;11.63;7.85;;;;;;;;;;5035269;28;20060;-72
2023/04/18 08:15:45;;;;;;;8.75;7.05;;;11.40;99.90;;;;;;5034709;28;20028;-72
2023/04/18 08:18:11;;;;;;;17.33;9.55;;;11.40;99.90;;;;;;5034715;28;20040;-72
2023/04/18 08:20:37;;;;;;;14.52;8.68;;;11.40;99.90;;;;;;5035127;28;20052;-73
2023/04/18 08:23:03;;;;;;;14.10;9.52;;;11.10;99.90;;;;;;5048382;28;20196;-73
2023/04/18 08:25:30;;;;;;;11.50;8.75;;;;;;;;;;5035834;28;20086;-73
2023/04/18 08:27:56;;;;;;;12.88;8.75;;;;;;;;;;5034574;28;20052;-72
2023/04/18 08:30:22;;;;;;;11.52;8.00;;;;;;;;;;5037223;28;20037;-72
2023/04/18 08:32:48;;;;;;;14.82;9.15;;;;;;;;;;5018225;28;20037;-72
2023/04/18 08:35:14;;;;;;;16.25;8.32;;;11.50;99.90;;;;;;5035209;28;20040;-72
2023/04/18 08:37:42;;;;;;;12.80;8.93;;;;;;;;;;5035401;28;20094;-73
2023/04/18 08:40:07;;;;;;;11.90;8.48;;;11.80;99.90;;;;;;5020554;28;20087;-72
2023/04/18 08:42:35;;;;;;;11.43;8.40;;;11.60;99.90;;;;;;5042331;28;20451;-72
2023/04/18 08:45:01;;;;;;;12.68;8.75;;;;;;;;;;5034799;28;20468;-72
2023/04/18 08:47:30;;;;;;;15.60;7.68;;;11.60;99.90;;;;;;5035211;28;20072;-73
2023/04/18 08:49:57;;;;;;;11.23;7.95;;;11.60;99.90;;;;;;5025309;28;20037;-72
2023/04/18 08:52:24;;;;;;;16.30;8.40;;;11.70;99.90;;;;;;5035013;28;20044;-73
2023/04/18 08:54:50;;;;;;;15.32;8.05;;;11.70;99.90;;;;;;5035032;28;20041;-72
2023/04/18 08:57:22;;;;;;;10.60;7.35;;;12.00;99.90;;;;;;5034336;28;20049;-72
2023/04/18 08:59:49;;;;;;;10.25;7.35;;;;;;;;;;5034760;28;20424;-72
2023/04/18 09:02:15;;;;;;;13.05;7.50;;;12.10;99.90;;;;;;5034474;28;20048;-73
2023/04/18 09:04:44;;;;;;;13.77;8.18;;;12.20;99.90;;;;;;5034187;28;20079;-72
2023/04/18 09:07:14;;;;;;;10.82;8.05;;;12.30;99.90;;;;;;5016429;28;20037;-72
2023/04/18 09:09:41;;;;;;;20.38;8.07;;;;;;;;;;5031957;28;20122;-72
2023/04/18 09:12:08;;;;;;;11.75;7.68;;;12.20;99.90;;;;;;5033389;28;20202;-73
2023/04/18 09:14:41;;;;;;;11.77;7.25;;;12.40;99.90;;;;;;5032426;28;20029;-72
2023/04/18 09:17:09;;;;;;;10.85;7.15;;;12.50;99.90;;;;;;5026506;28;20121;-74
2023/04/18 09:19:35;;;;;;;15.20;8.25;;;13.30;99.90;;;;;;5036841;28;20041;-72
2023/04/18 09:22:04;;;;;;;22.67;9.15;;;;;;;;;;5018348;28;20542;-73
2023/04/18 09:24:30;;;;;;;14.65;7.75;;;;;;;;;;5033201;22;20546;-68
2023/04/18 09:26:58;;;;;;;8.90;6.88;;;;;;;;;;5033470;28;20451;-67
2023/04/18 09:29:48;;;;;;;11.30;7.22;;;;;;;;;;5034415;28;20045;-67
2023/04/18 09:32:29;;;;;;;11.30;7.32;;;;;;;;;;5034111;28;20401;-68
2023/04/18 09:35:04;;;;;;;9.65;7.38;;;;;;;;;;5034257;28;20080;-68
2023/04/18 09:37:30;;;;;;;11.20;8.32;;;;;;;;;;5033701;28;20056;-68
2023/04/18 09:39:56;;;;;;;13.23;7.78;;;;;;;;;;5017548;28;20055;-68
2023/04/18 09:42:22;;;;;;;16.88;7.75;;;;;;;;;;5034154;28;20072;-68
2023/04/18 09:45:00;;;;;;;16.92;7.65;;;13.10;99.90;;;;;;5034232;28;20072;-68
2023/04/18 09:47:27;;;;;;;12.15;7.40;;;13.10;99.90;;;;;;5017364;28;20036;-68
2023/04/18 09:49:53;;;;;;;14.27;7.43;;;;;;;;;;5016902;28;20497;-68
2023/04/18 09:52:20;;;;;;;12.68;7.60;;;;;;;;;;5033404;28;20055;-68
2023/04/18 09:54:47;;;;;;;11.10;7.38;;;13.20;99.90;;;;;;5033563;28;20076;-69
2023/04/18 09:57:14;;;;;;;13.25;9.02;;;13.20;99.90;;;;;;5017276;28;20072;-69
2023/04/18 09:59:49;;;;;;;12.48;8.55;;;13.50;99.90;;;;;;5033484;28;20041;-69
2023/04/18 10:02:20;;;;;;;10.65;7.18;;;13.50;99.90;;;;;;5033552;28;20033;-70
2023/04/18 10:04:48;;;;;;;14.10;8.10;;;13.50;99.90;;;;;;5017271;28;20513;-70
2023/04/18 10:07:16;;;;;;;12.40;8.05;;;13.40;99.90;;;;;;5033579;28;20041;-68
2023/04/18 10:09:45;;;;;;;11.02;8.27;;;13.20;99.90;;;;;;5033670;28;20123;-69
2023/04/18 10:12:11;;;;;;;11.10;7.65;;;13.50;99.90;;;;;;5033613;28;20091;-69
2023/04/18 10:14:40;;;;;;;15.93;7.63;;;13.50;99.90;;;;;;5017304;28;20562;-69
2023/04/18 10:17:07;;;;;;;15.68;9.20;;;;;;;;;;5032355;28;20132;-69
2023/04/18 10:19:32;;;;;;;14.23;8.10;;;13.60;99.90;;;;;;5033473;28;20123;-70
2023/04/18 10:21:59;;;;;;;13.32;7.70;;;13.70;99.90;;;;;;5033617;28;20037;-69
2023/04/18 10:24:52;;;;;;;12.15;8.02;;;13.60;99.90;;;;;;5033490;28;20048;-69
2023/04/18 10:27:47;;;;;;;10.45;7.28;;;13.80;99.90;;;;;;5029656;28;20037;-68
2023/04/18 10:30:13;;;;;;;10.68;7.35;;;13.90;99.90;;;;;;5031866;28;20049;-69
2023/04/18 10:32:39;;;;;;;11.13;7.10;;;;;;;;;;5032693;28;20403;-68
2023/04/18 10:35:06;;;;;;;12.43;6.85;;;13.90;99.90;;;;;;5021362;28;20421;-68
2023/04/18 10:37:32;;;;;;;10.43;6.97;;;13.90;99.90;;;;;;5036998;28;20096;-68
2023/04/18 10:40:01;;;;;;;9.93;7.35;;;14.20;99.90;;;;;;5016780;28;20363;-68
2023/04/18 10:42:45;;;;;;;13.43;7.57;;;14.20;99.90;;;;;;5017987;28;20539;-68
2023/04/18 10:45:22;;;;;;;10.18;7.32;;;14.00;99.90;;;;;;5019708;28;20668;-68
2023/04/18 10:47:48;;;;;;;10.02;7.05;;;13.90;99.90;;;;;;4999334;28;20029;-69
2023/04/18 10:50:15;;;;;;;10.45;7.72;;;;;;;;;;5019095;28;20089;-69
2023/04/18 10:52:41;;;;;;;9.40;7.32;;;14.10;99.90;;;;;;5019233;28;20041;-67
2023/04/18 10:55:07;;;;;;;10.60;7.55;;;14.00;99.90;;;;;;5015269;28;20102;-68
2023/04/18 10:57:40;;;;;;;13.20;7.30;;;14.10;99.90;;;;;;5022804;28;20133;-67
2023/04/18 11:00:10;;;;;;;10.55;6.85;;;;;;;;;;5029164;28;20504;-66
2023/04/18 11:02:37;;;;;;;10.40;7.45;;;14.10;99.90;;;;;;5032897;28;20048;-67
2023/04/18 11:05:05;;;;;;;9.43;7.18;;;14.20;99.90;;;;;;5050339;28;20037;-68
2023/04/18 11:07:44;;;;;;;17.33;7.30;;;14.30;99.90;;;;;;5033016;28;20037;-68
2023/04/18 11:10:11;;;;;;;9.98;6.90;;;14.40;99.90;;;;;;5033246;28;20044;-68
2023/04/18 11:12:38;;;;;;;13.57;8.63;;;14.40;99.90;;;;;;5032481;28;20045;-68
2023/04/18 11:15:13;;;;;;;11.70;7.47;;;14.40;99.90;;;;;;5032669;28;20085;-68
2023/04/18 11:17:40;;;;;;;9.98;7.57;;;14.40;99.90;;;;;;5032379;28;20037;-68
2023/04/18 11:20:07;;;;;;;7.70;6.80;;;14.30;99.90;;;;;;5032881;28;20121;-69
2023/04/18 11:22:57;;;;;;;9.27;6.88;;;14.50;99.90;;;;;;5033176;28;20045;-68
2023/04/18 11:25:27;;;;;;;9.70;6.43;;;14.70;99.90;;;;;;5024202;28;20483;-68
2023/04/18 11:27:56;;;;;;;8.48;5.63;;;14.70;99.90;;;;;;5034589;28;20045;-68
2023/04/18 11:30:22;;;;;;;10.57;6.65;;;;;;;;;;5036777;28;20040;-68
2023/04/18 11:32:48;;;;;;;8.95;6.70;;;;;;;;;;5036411;28;20129;-67
2023/04/18 11:35:14;;;;;;;8.02;5.93;;;14.90;99.90;;;;;;5036626;28;20044;-67
2023/04/18 11:37:44;;;;;;;7.28;5.78;;;14.90;99.90;;;;;;5020033;28;20037;-67
2023/04/18 11:40:11;;;;;;;11.00;6.95;;;14.90;99.90;;;;;;5036291;28;20181;-67
2023/04/18 11:42:38;;;;;;;9.05;6.55;;;15.10;99.90;;;;;;5036293;28;20040;-67
2023/04/18 11:45:09;;;;;;;8.32;5.70;;;14.70;99.90;;;;;;5036806;28;20045;-67
2023/04/18 11:47:35;;;;;;;7.95;5.50;;;;;;;;;;5036173;28;20076;-68
2023/04/18 11:50:03;;;;;;;7.85;5.65;;;14.80;99.90;;;;;;5036322;28;20468;-67
2023/04/18 11:52:31;;;;;;;8.48;6.13;;;15.00;99.90;;;;;;5036473;28;20404;-67
2023/04/18 11:55:20;;;;;;;12.07;5.50;;;14.90;99.90;;;;;;5035823;28;20044;-67
2023/04/18 11:57:54;;;;;;;8.50;6.28;;;15.20;99.90;;;;;;5019333;28;20083;-67
2023/04/18 12:00:37;;;;;;;9.57;6.63;;;15.20;99.90;;;;;;5036181;28;20099;-68
2023/04/18 12:03:04;;;;;;;8.45;5.60;;;15.20;99.90;;;;;;5019759;28;20408;-68
2023/04/18 12:05:32;;;;;;;9.90;5.93;;;15.30;99.90;;;;;;5035681;28;20033;-68
2023/04/18 12:08:19;;;;;;;10.35;6.35;;;15.10;99.90;;;;;;5053587;28;20092;-68
2023/04/18 12:10:49;;;;;;;10.80;5.30;;;15.10;99.90;;;;;;5036037;28;20045;-67
2023/04/18 12:13:16;;;;;;;9.77;5.53;;;15.20;99.90;;;;;;5035691;28;20041;-68
2023/04/18 12:15:43;;;;;;;7.93;5.95;;;15.20;99.90;;;;;;5035116;28;20049;-67
2023/04/18 12:18:11;;;;;;;9.35;5.88;;;15.20;99.90;;;;;;5033908;28;20037;-67
2023/04/18 12:20:44;;;;;;;6.43;5.70;;;15.10;99.90;;;;;;5035569;28;20072;-67
2023/04/18 12:23:44;;;;;;;;;;;15.80;99.90;;;;;;5019226;28;20048;-67
2023/04/18 12:26:19;;;;;;;7.97;6.18;;;15.30;99.90;;;;;;4993450;28;20534;-67
2023/04/18 12:28:46;;;;;;;8.82;6.85;;;15.50;99.90;;;;;;5035434;28;20079;-68
2023/04/18 12:31:12;;;;;;;10.10;6.63;;;;;;;;;;5033879;28;20048;-67
2023/04/18 12:33:38;;;;;;;7.68;6.13;;;15.80;99.90;;;;;;5034721;28;20033;-67
2023/04/18 12:36:04;;;;;;;7.75;5.53;;;15.90;99.90;;;;;;5019253;28;20037;-68
2023/04/18 12:38:30;;;;;;;6.88;5.70;;;15.90;99.90;;;;;;5034185;28;20120;-68
2023/04/18 12:40:56;;;;;;;6.32;5.03;;;15.80;99.90;;;;;;5035089;28;20124;-67
2023/04/18 12:43:22;;;;;;;10.07;6.22;;;;;;;;;;5045099;28;20029;-68
2023/04/18 12:45:48;;;;;;;6.68;5.57;;;15.50;99.90;;;;;;5032736;28;20169;-68
2023/04/18 12:48:15;;;;;;;8.85;5.85;;;15.40;99.90;;;;;;5031096;28;20076;-68
2023/04/18 12:50:41;;;;;;;7.13;5.03;;;15.70;99.90;;;;;;5031810;28;20155;-68
2023/04/18 12:53:07;;;;;;;9.27;5.72;;;;;;;;;;5032640;28;20048;-67
2023/04/18 12:55:33;;;;;;;9.52;5.38;;;;;;;;;;5031562;28;20487;-67
2023/04/18 12:57:58;;;;;;;8.30;5.90;;;15.80;99.90;;;;;;5015946;28;20049;-67
2023/04/18 13:00:26;;;;;;;5.07;4.35;;;15.80;99.90;;;;;;5034052;28;20063;-68
2023/04/18 13:02:52;;;;;;;4.90;4.30;;;15.70;99.90;;;;;;5033956;28;20033;-68
2023/04/18 13:05:20;;;;;;;5.55;4.10;;;15.80;99.90;;;;;;5034814;28;20029;-68
2023/04/18 13:07:47;;;;;;;5.43;3.72;;;;;;;;;;5034347;28;20047;-68
2023/04/18 13:10:18;;;;;;;5.72;4.20;;;16.10;99.90;;;;;;5018478;28;20135;-68
2023/04/18 13:12:44;;;;;;;8.55;4.35;;;16.20;99.90;;;;;;5018077;28;20098;-67
2023/04/18 13:15:10;;;;;;;5.05;4.30;;;16.30;99.90;;;;;;5035107;28;20190;-68
2023/04/18 13:17:40;;;;;;;5.95;4.00;;;16.30;99.90;;;;;;5034509;28;20531;-69
2023/04/18 13:20:11;;;;;;;7.22;3.60;;;16.20;99.90;;;;;;5034987;28;20045;-69